Addis, LA

5:07 AM CDT on August 01, 2015 (GMT -0500)
Iberville Parish Courthouse | | Change Station
CLOSE
Current Station
Personal Weather Station
Location: Plaquemine, LA
Elevation: 30 ft
Nearby Weather Stations
Active Advisory: Flood Warning

Elev 30 ft 30.29 °N, 91.24 °W | Updated 31 seconds ago

Clear
Clear
77.9 °F
Feels Like 80 °F
N
0.0
Wind Variable Wind from ENE
Gusts 9.0 mph

Today
High -- | Low -- °F
--% Chance of Precip.
Yesterday
High -- | Low -- °F
Precip. -- in
6:23 AM 7:59 PM
Full, 99% visible
Pressure 29.91 in
Visibility 10.0 miles
Clouds Clear
Heat Index 80 °F
Dew Point 66 °F
Humidity 66%
Rainfall 0.00 in
Snow Depth Not available.
UV 0 out of 12
Pollen 3.20 out of 12
Air Quality Not available.
Flu Activity Not available.
METAR KBTR 010953Z 02004KT 10SM CLR 22/17 A2992 RMK AO2 SLP129 T02220172 $

More Conditions Fewer Conditions

Pressure 29.91 in
Visibility 10.0 miles
Clouds Clear
Heat Index 80 °F
Dew Point 66 °F
Humidity 66%
Rainfall 0.00 in
Snow Depth Not available.
UV 0 out of 12
Pollen 3.20 out of 12
Air Quality Not available.
Flu Activity Not available.
METAR KBTR 010953Z 02004KT 10SM CLR 22/17 A2992 RMK AO2 SLP129 T02220172 $

More Conditions Fewer Conditions

10-Day Weather Forecast

×

Almanac

Astronomy

Aug. 01, 2015 Rise Set
Actual Time
Civil Twilight
Nautical Twilight
Astronomical Twilight
Moon
Length of Visible Light
Length of Day
Tomorrow will be .
, % of the Moon is Illuminated

Today's Extremes

State Highs State Lows

Community

WunderPhotos

Upload Photos

1,842,905 photos uploaded!

WunderBlogs® & News

Nearby

Air Quality

  Air Quality AQ Index Pollutant
Not available.

Snow Depth

Station Depth Elevation

Earthquake Activity

City Distance Mag. Time & Date
Minimum magnitude displayed is 2.5.

Coastal Water Temperatures

Place Temperature

Stations

Nearby Weather Stations

Station Location Temp. Windchill Dew Point Humidity Wind Precip. Elev Updated Type
                   
Flood Warning
Statement as of 7:53 PM CDT on July 31, 2015

The Flood Warning continues for
the Mississippi River at Baton Rouge.
* Until further notice.
* At 7:00 PM Friday the stage was 38.7 feet.
* Moderate flooding is occurring and moderate flooding is forecast.
* Flood stage is 35.0 feet.
* Forecast... the river has already crested and will continue to fall
to 37.4 feet by Wednesday August 5.
* Impact... at 38.0 feet... river traffic and Industrial activity on the
river side of the levees are greatly affected. Navigational
safety regulations will be strictly enforced.


Lat... Lon 3074 9130 3071 9159 3032 9130 3035 9113